Time;durP1;ratioP1;P1;durP2;ratioP2;P2;SDS_P1;SDS_P2;PMS_P1;PMS_P2;Temp;Humidity;BMP_temperature;BMP_pressure;BME280_temperature;BME280_humidity;BME280_pressure;Samples;Min_cycle;Max_cycle;Signal;HPM_P1;HPM_P2
2022/11/22 00:00:28;;;;;;;14.95;4.22;;;;;;;;;;5056821;28;20056;-80
2022/11/22 00:02:54;;;;;;;16.00;5.15;;;;;;;;;;5057657;28;20219;-80
2022/11/22 00:05:20;;;;;;;20.90;4.50;;;;;;;;;;5054997;28;20057;-80
2022/11/22 00:07:47;;;;;;;14.95;4.63;;;;;;;;;;5032020;28;20544;-79
2022/11/22 00:10:13;;;;;;;8.02;3.35;;;;;;;;;;5054192;28;20259;-80
2022/11/22 00:12:40;;;;;;;11.75;3.58;;;;;;;;;;5054872;28;20048;-79
2022/11/22 00:15:07;;;;;;;9.60;3.22;;;;;;;;;;5039203;28;20073;-80
2022/11/22 00:17:33;;;;;;;11.30;3.80;;;;;;;;;;5031778;28;20040;-80
2022/11/22 00:20:00;;;;;;;10.73;3.63;;;;;;;;;;5054954;28;20746;-80
2022/11/22 00:22:26;;;;;;;10.20;2.45;;;;;;;;;;5054061;28;20044;-79
2022/11/22 00:24:52;;;;;;;7.45;3.35;;;;;;;;;;5038467;28;20048;-80
2022/11/22 00:27:19;;;;;;;13.60;4.47;;;;;;;;;;5033346;28;20053;-79
2022/11/22 00:29:45;;;;;;;4.93;3.00;;;;;;;;;;5058176;28;20620;-80
2022/11/22 00:32:13;;;;;;;8.10;2.35;;;;;;;;;;5040206;28;20616;-79
2022/11/22 00:34:40;;;;;;;17.83;2.80;;;;;;;;;;5042328;28;21222;-80
2022/11/22 00:37:08;;;;;;;8.00;2.28;;;;;;;;;;5059373;28;20041;-80
2022/11/22 00:39:34;;;;;;;7.05;2.78;;;;;;;;;;5042729;28;20056;-81
2022/11/22 00:42:00;;;;;;;4.32;1.67;;;;;;;;;;5059400;28;20521;-80
2022/11/22 00:44:26;;;;;;;14.70;2.55;;;;;;;;;;5057274;28;20056;-80
2022/11/22 00:46:55;;;;;;;7.95;2.47;;;;;;;;;;5059303;28;20045;-80
2022/11/22 00:49:21;;;;;;;9.20;2.25;;;;;;;;;;5038547;28;20075;-80
2022/11/22 00:51:47;;;;;;;13.10;2.47;;;;;;;;;;5058658;28;20052;-80
2022/11/22 00:54:13;;;;;;;6.85;2.30;;;;;;;;;;5058999;28;20548;-80
2022/11/22 00:56:40;;;;;;;4.43;1.92;;;;;;;;;;5060759;28;20041;-81
2022/11/22 00:59:06;;;;;;;13.90;3.20;;;;;;;;;;5058856;28;20876;-80
2022/11/22 01:01:32;;;;;;;5.50;1.88;;;;;;;;;;5061760;28;20252;-80
2022/11/22 01:03:58;;;;;;;8.80;2.17;;;;;;;;;;5064222;28;20048;-80
2022/11/22 01:06:24;;;;;;;6.85;1.85;;;;;;;;;;5064802;28;20041;-79
2022/11/22 01:08:50;;;;;;;8.27;2.70;;;;;;;;;;5063403;28;20041;-79
2022/11/22 01:11:19;;;;;;;5.57;2.15;;;;;;;;;;5060501;28;20064;-80
2022/11/22 01:13:45;;;;;;;3.83;2.13;;;;;;;;;;5060703;28;20053;-79
2022/11/22 01:16:11;;;;;;;6.88;2.20;;;;;;;;;;5040631;28;20049;-79
2022/11/22 01:18:37;;;;;;;8.20;2.08;;;;;;;;;;5060444;28;20175;-80
2022/11/22 01:21:04;;;;;;;4.47;1.75;;;;;;;;;;5060472;28;20037;-80
2022/11/22 01:23:31;;;;;;;3.42;1.65;;;;;;;;;;5061031;28;20043;-79
2022/11/22 01:25:57;;;;;;;11.32;2.65;;;;;;;;;;5068433;28;20049;-80
2022/11/22 01:28:25;;;;;;;6.53;2.20;;;;;;;;;;5064635;28;20057;-80
2022/11/22 01:30:51;;;;;;;4.47;2.20;;;;;;;;;;5058279;28;20049;-80
2022/11/22 01:33:18;;;;;;;6.00;1.90;;;;;;;;;;5061377;28;20922;-81
2022/11/22 01:35:44;;;;;;;7.50;2.22;;;;;;;;;;5060842;28;20052;-79
2022/11/22 01:38:16;;;;;;;3.80;1.27;;;;;;;;;;5058936;28;20439;-80
2022/11/22 01:40:42;;;;;;;;;;;;;;;;;;5063263;28;20045;-80
2022/11/22 01:43:16;;;;;;;4.22;1.55;;;;;;;;;;5042244;28;19920;-80
2022/11/22 01:45:43;;;;;;;5.82;1.45;;;;;;;;;;5059020;28;20053;-79
2022/11/22 01:48:13;;;;;;;7.22;2.40;;;;;;;;;;5039040;28;20044;-79
2022/11/22 01:50:40;;;;;;;7.32;1.50;;;;;;;;;;5059277;28;20125;-80
2022/11/22 01:53:09;;;;;;;6.03;3.05;;;;;;;;;;5061128;28;20105;-80
2022/11/22 01:55:35;;;;;;;9.13;1.75;;;;;;;;;;5036612;28;20124;-80
2022/11/22 01:58:02;;;;;;;10.13;3.08;;;;;;;;;;5041203;28;20040;-80
2022/11/22 02:00:28;;;;;;;5.10;1.58;;;;;;;;;;5058711;28;20049;-80
2022/11/22 02:02:56;;;;;;;15.57;3.65;;;;;;;;;;5057913;28;20079;-80
2022/11/22 02:05:23;;;;;;;4.53;1.13;;;;;;;;;;5056623;28;20573;-80
2022/11/22 02:07:55;;;;;;;5.38;2.20;;;;;;;;;;5039530;28;20040;-79
2022/11/22 02:10:21;;;;;;;;;;;;;;;;;;5058613;28;20049;-79
2022/11/22 02:12:48;;;;;;;5.72;2.17;;;;;;;;;;5040225;28;19921;-80
2022/11/22 02:15:14;;;;;;;4.63;1.80;;;;;;;;;;5057241;28;20068;-79
2022/11/22 02:17:40;;;;;;;4.30;1.20;;;;;;;;;;5052617;28;20045;-79
2022/11/22 02:20:07;;;;;;;2.10;1.27;;;;;;;;;;5033554;28;20041;-80
2022/11/22 02:22:42;;;;;;;5.03;1.63;;;;;;;;;;5056670;28;20048;-79
2022/11/22 02:25:15;;;;;;;5.60;1.80;;;;;;;;;;5056554;28;20041;-80
2022/11/22 02:27:41;;;;;;;5.97;2.00;;;;;;;;;;5057915;28;20043;-79
2022/11/22 02:30:07;;;;;;;7.05;3.75;;;;;;;;;;5057142;28;20080;-80
2022/11/22 02:32:33;;;;;;;5.35;1.52;;;;;;;;;;5037584;28;21298;-80
2022/11/22 02:35:00;;;;;;;3.45;1.48;;;;;;;;;;5052758;28;20363;-80
2022/11/22 02:37:28;;;;;;;3.88;1.40;;;;;;;;;;5036672;28;20039;-80
2022/11/22 02:40:02;;;;;;;6.60;1.60;;;;;;;;;;5037428;28;20080;-80
2022/11/22 02:42:29;;;;;;;6.25;1.70;;;;;;;;;;5037449;28;20041;-80
2022/11/22 02:44:55;;;;;;;4.60;1.55;;;;;;;;;;5057071;28;20127;-79
2022/11/22 02:47:21;;;;;;;2.92;1.55;;;;;;;;;;5054311;28;20037;-80
2022/11/22 02:49:47;;;;;;;6.38;2.28;;;;;;;;;;5030758;28;20040;-79
2022/11/22 02:52:17;;;;;;;5.78;2.03;;;;;;;;;;5057191;28;20124;-79
2022/11/22 02:54:44;;;;;;;3.45;2.17;;;;;;;;;;5031388;28;20037;-80
2022/11/22 02:57:10;;;;;;;5.30;1.48;;;;;;;;;;5056652;28;20045;-79
2022/11/22 02:59:36;;;;;;;8.70;1.60;;;;;;;;;;5054998;28;20041;-80
2022/11/22 03:02:02;;;;;;;4.35;1.38;;;;;;;;;;5055050;28;20043;-80
2022/11/22 03:04:28;;;;;;;2.03;1.02;;;;;;;;;;5051532;28;20041;-79
2022/11/22 03:06:55;;;;;;;8.13;1.60;;;;;;;;;;5053603;28;20107;-80
2022/11/22 03:09:22;;;;;;;9.88;1.73;;;;;;;;;;5053619;28;20041;-80
2022/11/22 03:11:48;;;;;;;3.15;1.10;;;;;;;;;;5038890;28;20120;-80
2022/11/22 03:14:15;;;;;;;5.50;1.58;;;;;;;;;;5030195;28;21132;-80
2022/11/22 03:16:41;;;;;;;6.18;1.77;;;;;;;;;;5056710;28;20065;-80
2022/11/22 03:19:08;;;;;;;1.92;0.98;;;;;;;;;;5056063;28;20045;-80
2022/11/22 03:21:34;;;;;;;2.35;1.42;;;;;;;;;;5056844;28;20135;-80
2022/11/22 03:24:00;;;;;;;4.22;2.13;;;;;;;;;;5054914;28;20076;-80
2022/11/22 03:26:26;;;;;;;4.30;1.85;;;;;;;;;;5031942;28;20055;-80
2022/11/22 03:28:52;;;;;;;5.35;2.35;;;;;;;;;;5056698;28;20549;-80
2022/11/22 03:31:18;;;;;;;4.22;1.30;;;;;;;;;;5056491;28;20036;-80
2022/11/22 03:33:44;;;;;;;4.70;1.33;;;;;;;;;;5054962;28;20045;-80
2022/11/22 03:36:10;;;;;;;2.90;1.00;;;;;;;;;;5029934;28;20034;-80
2022/11/22 03:38:36;;;;;;;5.25;1.50;;;;;;;;;;5055764;28;20578;-80
2022/11/22 03:41:02;;;;;;;3.60;1.48;;;;;;;;;;5056124;28;20045;-80
2022/11/22 03:43:28;;;;;;;2.65;1.35;;;;;;;;;;5052899;28;20041;-80
2022/11/22 03:45:54;;;;;;;4.47;2.63;;;;;;;;;;5053986;28;20049;-80
2022/11/22 03:48:21;;;;;;;5.57;1.17;;;;;;;;;;5035278;28;20052;-79
2022/11/22 03:50:47;;;;;;;3.97;1.95;;;;;;;;;;5055740;28;20523;-80
2022/11/22 03:53:13;;;;;;;4.65;1.52;;;;;;;;;;5053891;28;20052;-80
2022/11/22 03:55:39;;;;;;;2.90;1.42;;;;;;;;;;5053845;28;20146;-80
2022/11/22 03:58:05;;;;;;;4.70;1.20;;;;;;;;;;5053482;28;20203;-79
2022/11/22 04:00:32;;;;;;;1.58;1.15;;;;;;;;;;5054355;28;20045;-80
2022/11/22 04:02:58;;;;;;;5.65;1.30;;;;;;;;;;5051762;28;20088;-80
2022/11/22 04:05:24;;;;;;;3.78;1.50;;;;;;;;;;5027545;28;20056;-80
2022/11/22 04:07:56;;;;;;;3.10;1.58;;;;;;;;;;5053275;28;20344;-80
2022/11/22 04:10:22;;;;;;;7.00;1.70;;;;;;;;;;5028671;28;20048;-80
2022/11/22 04:12:48;;;;;;;4.32;2.38;;;;;;;;;;5032302;28;20048;-80
2022/11/22 04:15:15;;;;;;;3.78;1.70;;;;;;;;;;5053238;28;20041;-80
2022/11/22 04:17:44;;;;;;;6.18;1.38;;;;;;;;;;5055549;28;20049;-80
2022/11/22 04:23:07;;;;;;;5.97;2.08;;;;;;;;;;5055148;28;20131;-80
2022/11/22 04:25:34;;;;;;;7.50;1.67;;;;;;;;;;5054143;28;20044;-80
2022/11/22 04:28:00;;;;;;;4.78;1.50;;;;;;;;;;5036799;28;20109;-81
2022/11/22 04:33:13;;;;;;;6.60;1.30;;;;;;;;;;5052200;28;20596;-80
2022/11/22 04:35:39;;;;;;;7.72;1.45;;;;;;;;;;5031685;28;21362;-80
2022/11/22 04:38:06;;;;;;;9.88;2.17;;;;;;;;;;5050523;28;20048;-79
2022/11/22 04:40:32;;;;;;;3.67;1.48;;;;;;;;;;5054097;28;20497;-80
2022/11/22 04:45:44;;;;;;;5.40;1.58;;;;;;;;;;5052542;28;20053;-79
2022/11/22 04:48:11;;;;;;;6.75;2.47;;;;;;;;;;5034579;28;20037;-79
2022/11/22 04:53:22;;;;;;;2.65;1.35;;;;;;;;;;5053115;28;20538;-79
2022/11/22 04:55:48;;;;;;;4.20;1.60;;;;;;;;;;5044969;28;20045;-79
2022/11/22 04:58:14;;;;;;;4.85;2.05;;;;;;;;;;5051574;28;20132;-80
2022/11/22 05:00:40;;;;;;;7.20;3.05;;;;;;;;;;5029897;28;20045;-77
2022/11/22 05:03:07;;;;;;;6.95;2.00;;;;;;;;;;5050131;28;20501;-76
2022/11/22 05:05:36;;;;;;;7.95;2.00;;;;;;;;;;5047753;28;20554;-76
2022/11/22 05:08:03;;;;;;;7.88;1.38;;;;;;;;;;5025993;28;20136;-76
2022/11/22 05:10:55;;;;;;;2.95;1.13;;;;;;;;;;5026639;28;20038;-75
2022/11/22 05:13:15;;;;;;;6.00;2.70;;;;;;;;;;5032847;28;20053;-76
2022/11/22 05:15:41;;;;;;;9.68;1.55;;;;;;;;;;5023543;28;20554;-76
2022/11/22 05:18:07;;;;;;;3.47;1.50;;;;;;;;;;5030627;28;20117;-76
2022/11/22 05:20:33;;;;;;;4.85;1.33;;;;;;;;;;5032423;28;20104;-77
2022/11/22 05:25:44;;;;;;;4.70;1.20;;;;;;;;;;5032540;28;20606;-76
2022/11/22 05:28:10;;;;;;;6.93;1.33;;;;;;;;;;5024105;28;20052;-76
2022/11/22 05:30:40;;;;;;;5.30;1.85;;;;;;;;;;5031892;28;20049;-76
2022/11/22 05:33:06;;;;;;;10.40;1.65;;;;;;;;;;5023175;28;20662;-76
2022/11/22 05:35:32;;;;;;;5.60;1.52;;;;;;;;;;5040617;28;20112;-76
2022/11/22 05:37:59;;;;;;;8.50;2.53;;;;;;;;;;5031210;28;20045;-77
2022/11/22 05:40:25;;;;;;;9.50;1.80;;;;;;;;;;5023051;28;20047;-76
2022/11/22 05:42:51;;;;;;;4.90;1.13;;;;;;;;;;5033085;28;20534;-77
2022/11/22 05:45:18;;;;;;;5.55;1.30;;;;;;;;;;5025955;28;20571;-77
2022/11/22 05:47:44;;;;;;;5.30;1.80;;;;;;;;;;5031834;28;20042;-77
2022/11/22 05:50:10;;;;;;;3.47;1.23;;;;;;;;;;5024325;28;20045;-76
2022/11/22 05:52:36;;;;;;;3.53;1.60;;;;;;;;;;5030391;28;20889;-77
2022/11/22 05:55:02;;;;;;;4.90;2.45;;;;;;;;;;5029436;28;20091;-76
2022/11/22 05:57:28;;;;;;;10.65;2.35;;;;;;;;;;5028867;28;20152;-76
2022/11/22 05:59:54;;;;;;;14.25;2.38;;;;;;;;;;5026153;28;20239;-77
2022/11/22 06:02:20;;;;;;;4.30;1.30;;;;;;;;;;5029812;28;20464;-76
2022/11/22 06:04:46;;;;;;;4.32;1.38;;;;;;;;;;5028359;28;20048;-76
2022/11/22 06:07:12;;;;;;;1.75;1.05;;;;;;;;;;5051486;28;20071;-74
2022/11/22 06:09:39;;;;;;;3.25;1.40;;;;;;;;;;5051177;28;20041;-77
2022/11/22 06:12:05;;;;;;;1.65;1.10;;;;;;;;;;5053764;28;20048;-76
2022/11/22 06:14:31;;;;;;;4.18;1.20;;;;;;;;;;5053633;28;20231;-77
2022/11/22 06:16:57;;;;;;;6.22;1.38;;;;;;;;;;5028499;28;20045;-77
2022/11/22 06:19:23;;;;;;;3.00;1.55;;;;;;;;;;5052809;28;20072;-77
2022/11/22 06:21:49;;;;;;;6.05;1.80;;;;;;;;;;5053392;28;20060;-77
2022/11/22 06:24:15;;;;;;;6.78;1.83;;;;;;;;;;5051455;28;20096;-77
2022/11/22 06:26:42;;;;;;;7.43;1.75;;;;;;;;;;5052152;28;20440;-77
2022/11/22 06:29:08;;;;;;;10.00;1.15;;;;;;;;;;5053184;28;20049;-77
2022/11/22 06:31:34;;;;;;;6.55;1.73;;;;;;;;;;5051927;28;20073;-77
2022/11/22 06:34:00;;;;;;;4.07;1.45;;;;;;;;;;5054393;28;20045;-75
2022/11/22 06:36:27;;;;;;;10.73;3.00;;;;;;;;;;5053416;28;20045;-76
2022/11/22 06:38:53;;;;;;;12.82;2.58;;;;;;;;;;5054212;28;20041;-76
2022/11/22 06:41:21;;;;;;;3.30;1.60;;;;;;;;;;5058603;28;20136;-76
2022/11/22 06:43:48;;;;;;;7.35;1.13;;;;;;;;;;5038568;28;20503;-76
2022/11/22 06:46:14;;;;;;;10.90;1.92;;;;;;;;;;5038888;28;20053;-75
2022/11/22 06:48:41;;;;;;;7.95;1.35;;;;;;;;;;5054574;28;20048;-76
2022/11/22 06:51:09;;;;;;;6.40;1.33;;;;;;;;;;5055886;28;20037;-75
2022/11/22 06:53:36;;;;;;;6.70;3.08;;;;;;;;;;5055953;28;20048;-76
2022/11/22 06:56:12;;;;;;;12.90;1.85;;;;;;;;;;5035730;28;20045;-75
2022/11/22 06:58:39;;;;;;;6.82;2.00;;;;;;;;;;5053461;28;20070;-76
2022/11/22 07:01:07;;;;;;;9.60;3.28;;;;;;;;;;5030235;28;20760;-74
2022/11/22 07:03:36;;;;;;;5.57;1.27;;;;;;;;;;5053747;28;20474;-76
2022/11/22 07:06:02;;;;;;;5.68;2.13;;;;;;;;;;5054778;28;20057;-75
2022/11/22 07:08:29;;;;;;;13.73;1.75;;;;;;;;;;5056616;28;20048;-76
2022/11/22 07:10:55;;;;;;;4.05;1.05;;;;;;;;;;5056786;28;20049;-76
2022/11/22 07:13:21;;;;;;;8.43;1.98;;;;;;;;;;5057605;28;20045;-76
2022/11/22 07:15:57;;;;;;;7.82;2.05;;;;;;;;;;5033374;28;20045;-75
2022/11/22 07:18:23;;;;;;;8.50;1.70;;;;;;;;;;5057126;28;20049;-75
2022/11/22 07:20:49;;;;;;;10.68;4.05;;;;;;;;;;5033442;28;20087;-75
2022/11/22 07:23:15;;;;;;;5.75;1.40;;;;;;;;;;5032095;28;20041;-76
2022/11/22 07:25:45;;;;;;;17.08;2.10;;;;;;;;;;5057835;28;20297;-76
2022/11/22 07:28:12;;;;;;;9.27;2.00;;;;;;;;;;5039321;28;20033;-75
2022/11/22 07:30:38;;;;;;;5.03;1.77;;;;;;;;;;5057964;28;20116;-76
2022/11/22 07:33:05;;;;;;;12.00;2.00;;;;;;;;;;5031987;28;20037;-76
2022/11/22 07:35:31;;;;;;;18.48;2.45;;;;;;;;;;5058028;28;20527;-75
2022/11/22 07:37:57;;;;;;;8.93;3.85;;;;;;;;;;5056934;28;20045;-75
2022/11/22 07:40:24;;;;;;;12.38;2.20;;;;;;;;;;5058751;28;20081;-76
2022/11/22 07:42:50;;;;;;;11.73;2.40;;;;;;;;;;5057272;28;20045;-76
2022/11/22 07:45:16;;;;;;;7.03;2.38;;;;;;;;;;5057496;28;20064;-76
2022/11/22 07:47:42;;;;;;;10.77;3.05;;;;;;;;;;5056843;28;20045;-75
2022/11/22 07:50:08;;;;;;;7.10;1.75;;;;;;;;;;5056117;28;20511;-76
2022/11/22 07:52:34;;;;;;;13.05;2.17;;;;;;;;;;5058217;28;20045;-76
2022/11/22 07:55:00;;;;;;;9.70;1.83;;;;;;;;;;5050697;28;20056;-75
2022/11/22 07:57:26;;;;;;;12.82;3.33;;;;;;;;;;5054393;28;20048;-76
2022/11/22 07:59:52;;;;;;;4.57;1.70;;;;;;;;;;5055122;28;20045;-75
2022/11/22 08:02:19;;;;;;;11.00;3.95;;;;;;;;;;5054598;28;20124;-75
2022/11/22 08:04:45;;;;;;;7.88;1.63;;;;;;;;;;5052893;28;20064;-75
2022/11/22 08:07:11;;;;;;;9.88;2.15;;;;;;;;;;5055099;28;20043;-75
2022/11/22 08:09:37;;;;;;;11.38;2.58;;;;;;;;;;5029509;28;20623;-76
2022/11/22 08:12:03;;;;;;;4.53;1.70;;;;;;;;;;5053621;28;20109;-75
2022/11/22 08:14:29;;;;;;;11.80;2.35;;;;;;;;;;5029802;28;21774;-75
2022/11/22 08:16:55;;;;;;;5.97;2.90;;;;;;;;;;5053323;28;20049;-76
2022/11/22 08:19:21;;;;;;;8.27;2.45;;;;;;;;;;5054663;28;20048;-76
2022/11/22 08:21:48;;;;;;;7.22;1.88;;;;;;;;;;5035599;28;20045;-76
2022/11/22 08:24:14;;;;;;;9.55;1.80;;;;;;;;;;5056532;28;20041;-74
2022/11/22 08:26:41;;;;;;;6.50;1.88;;;;;;;;;;5056865;28;20096;-75
2022/11/22 08:29:07;;;;;;;6.43;3.15;;;;;;;;;;5057445;28;20065;-75
2022/11/22 08:31:34;;;;;;;8.25;4.05;;;;;;;;;;5055800;28;20061;-75
2022/11/22 08:34:00;;;;;;;12.75;3.53;;;;;;;;;;5056637;28;20086;-75
2022/11/22 08:36:26;;;;;;;2.97;1.77;;;;;;;;;;5055031;28;20178;-75
2022/11/22 08:38:52;;;;;;;11.73;2.35;;;;;;;;;;5057358;28;20057;-75
2022/11/22 08:41:19;;;;;;;11.77;2.83;;;;;;;;;;5057690;28;20044;-76
2022/11/22 08:43:45;;;;;;;7.38;2.00;;;;;;;;;;5054333;28;20076;-76
2022/11/22 08:46:11;;;;;;;10.45;2.28;;;;;;;;;;5057059;28;20049;-76
2022/11/22 08:48:37;;;;;;;8.90;2.20;;;;;;;;;;5030763;28;20048;-76
2022/11/22 08:51:05;;;;;;;10.77;2.65;;;;;;;;;;5031769;28;20184;-75
2022/11/22 08:53:32;;;;;;;11.02;4.07;;;;;;;;;;5056618;28;20136;-76
2022/11/22 08:56:00;;;;;;;3.45;1.52;;;;;;;;;;5053586;28;20041;-76
2022/11/22 08:58:26;;;;;;;9.73;2.00;;;;;;;;;;5038591;28;20056;-76
2022/11/22 09:00:52;;;;;;;12.48;2.75;;;;;;;;;;5054864;28;20063;-75
2022/11/22 09:03:18;;;;;;;5.63;1.75;;;;;;;;;;5036045;28;20049;-75
2022/11/22 09:05:44;;;;;;;15.40;2.92;;;;;;;;;;5056735;28;20118;-75
2022/11/22 09:08:10;;;;;;;17.85;2.22;;;;;;;;;;5056453;28;20572;-76
2022/11/22 09:10:36;;;;;;;8.30;2.08;;;;;;;;;;5056542;28;20095;-75
2022/11/22 09:13:02;;;;;;;12.55;4.45;;;;;;;;;;5056929;28;20040;-75
2022/11/22 09:15:28;;;;;;;7.00;2.03;;;;;;;;;;5055622;28;20180;-75
2022/11/22 09:18:01;;;;;;;8.75;1.88;;;;;;;;;;5056130;28;20033;-75
2022/11/22 09:20:28;;;;;;;7.35;2.28;;;;;;;;;;5037764;28;20041;-76
2022/11/22 09:22:54;;;;;;;7.47;2.92;;;;;;;;;;5056544;28;20582;-75
2022/11/22 09:25:20;;;;;;;9.23;4.30;;;;;;;;;;5056289;28;20116;-75
2022/11/22 09:27:46;;;;;;;7.85;2.83;;;;;;;;;;5055224;28;20139;-75
2022/11/22 09:30:12;;;;;;;13.32;2.72;;;;;;;;;;5055564;28;20041;-74
2022/11/22 09:32:38;;;;;;;10.32;3.10;;;;;;;;;;5037023;28;20128;-75
2022/11/22 09:35:04;;;;;;;6.95;2.08;;;;;;;;;;5053691;28;20157;-75
2022/11/22 09:37:31;;;;;;;7.78;2.53;;;;;;;;;;5056033;28;20045;-76
2022/11/22 09:39:57;;;;;;;5.53;1.58;;;;;;;;;;5055744;28;20041;-75
2022/11/22 09:42:34;;;;;;;8.48;2.25;;;;;;;;;;5056135;28;20045;-76
2022/11/22 09:45:25;;;;;;;6.85;1.92;;;;;;;;;;5030775;28;20068;-75
2022/11/22 09:48:10;;;;;;;6.88;1.60;;;;;;;;;;5056126;28;20380;-76
2022/11/22 09:50:48;;;;;;;8.68;2.45;;;;;;;;;;5056956;28;20033;-75
2022/11/22 09:53:25;;;;;;;9.25;2.15;;;;;;;;;;5056870;28;20052;-75
2022/11/22 09:55:53;;;;;;;7.22;2.38;;;;;;;;;;5055397;28;20142;-74
2022/11/22 09:58:25;;;;;;;6.65;1.98;;;;;;;;;;5056788;28;20037;-74
2022/11/22 10:00:51;;;;;;;;;;;;;;;;;;5056425;28;20045;-76
2022/11/22 10:03:28;;;;;;;6.47;1.58;;;;;;;;;;5054373;28;19925;-76
2022/11/22 10:05:57;;;;;;;9.98;2.47;;;;;;;;;;5055343;28;20233;-75
2022/11/22 10:08:26;;;;;;;3.97;1.63;;;;;;;;;;5055465;28;20168;-74
2022/11/22 10:10:53;;;;;;;6.03;2.30;;;;;;;;;;5055857;28;20451;-75
2022/11/22 10:13:25;;;;;;;10.93;2.90;;;;;;;;;;5031171;28;20065;-75
2022/11/22 10:15:54;;;;;;;8.07;2.38;;;;;;;;;;5033533;28;20049;-76
2022/11/22 10:18:29;;;;;;;10.88;2.35;;;;;;;;;;5056049;28;20048;-74
2022/11/22 10:20:55;;;;;;;7.20;1.83;;;;;;;;;;5040235;28;20040;-73
2022/11/22 10:23:23;;;;;;;12.07;3.25;;;;;;;;;;5058449;28;20157;-73
2022/11/22 10:25:59;;;;;;;9.70;1.88;;;;;;;;;;5038020;28;20049;-73
2022/11/22 10:28:35;;;;;;;5.97;1.75;;;;;;;;;;5056269;28;20041;-73
2022/11/22 10:31:07;;;;;;;6.03;2.33;;;;;;;;;;5054899;28;20041;-73
2022/11/22 10:34:02;;;;;;;9.27;2.73;;;;;;;;;;5038204;28;20053;-73
2022/11/22 10:36:47;;;;;;;9.13;2.53;;;;;;;;;;5001966;28;20109;-74
2022/11/22 10:39:23;;;;;;;6.82;2.08;;;;;;;;;;5031836;28;20050;-73
2022/11/22 10:42:07;;;;;;;5.32;2.13;;;;;;;;;;5039436;28;20047;-72
2022/11/22 10:44:47;;;;;;;7.72;1.63;;;;;;;;;;5031664;28;20053;-74
2022/11/22 10:47:13;;;;;;;8.80;2.53;;;;;;;;;;5037979;28;20518;-73
2022/11/22 10:49:47;;;;;;;7.30;2.22;;;;;;;;;;5056007;28;20515;-74
2022/11/22 10:52:25;;;;;;;6.57;2.80;;;;;;;;;;5057660;28;20045;-73
2022/11/22 10:55:10;;;;;;;16.75;2.22;;;;;;;;;;5057115;28;20423;-73
2022/11/22 10:57:41;;;;;;;7.68;2.60;;;;;;;;;;5058190;28;20427;-73
2022/11/22 11:00:16;;;;;;;5.25;1.83;;;;;;;;;;5057204;28;20048;-73
2022/11/22 11:02:51;;;;;;;5.43;1.98;;;;;;;;;;5056602;28;20052;-73
2022/11/22 11:05:20;;;;;;;9.75;2.53;;;;;;;;;;5056686;28;20079;-73
2022/11/22 11:07:48;;;;;;;7.85;2.03;;;;;;;;;;5038762;28;20041;-73
2022/11/22 11:10:19;;;;;;;15.45;2.92;;;;;;;;;;5056981;28;20045;-72
2022/11/22 11:12:51;;;;;;;11.45;4.35;;;;;;;;;;5038938;28;20037;-73
2022/11/22 11:15:17;;;;;;;13.13;2.33;;;;;;;;;;5054527;28;20127;-73
2022/11/22 11:17:45;;;;;;;7.72;1.98;;;;;;;;;;5056956;28;20048;-73
2022/11/22 11:20:16;;;;;;;9.63;2.60;;;;;;;;;;5056660;28;20116;-72
2022/11/22 11:22:42;;;;;;;9.95;2.95;;;;;;;;;;5033205;28;20131;-72
2022/11/22 11:25:28;;;;;;;6.10;2.30;;;;;;;;;;5056739;28;20124;-73
2022/11/22 11:27:55;;;;;;;11.02;2.83;;;;;;;;;;5058657;28;20100;-74
2022/11/22 11:30:21;;;;;;;9.38;3.13;;;;;;;;;;5055662;28;20037;-74
2022/11/22 11:32:55;;;;;;;5.22;1.77;;;;;;;;;;5056384;28;20520;-74
2022/11/22 11:35:21;;;;;;;9.43;2.08;;;;;;;;;;5065884;28;20048;-73
2022/11/22 11:37:47;;;;;;;10.55;1.92;;;;;;;;;;5065497;28;20133;-73
2022/11/22 11:40:27;;;;;;;10.68;2.05;;;;;;;;;;5072976;28;20083;-71
2022/11/22 11:43:12;;;;;;;5.38;2.90;;;;;;;;;;5050715;28;20041;-72
2022/11/22 11:45:38;;;;;;;13.73;3.60;;;;;;;;;;5038807;28;20053;-73
2022/11/22 11:48:04;;;;;;;5.97;2.28;;;;;;;;;;5035156;28;20110;-73
2022/11/22 11:50:30;;;;;;;4.70;1.17;;;;;;;;;;5056020;28;20616;-74
2022/11/22 11:52:56;;;;;;;5.47;2.10;;;;;;;;;;5058942;28;20048;-74
2022/11/22 11:55:22;;;;;;;10.35;2.15;;;;;;;;;;5054507;28;20081;-73
2022/11/22 11:57:49;;;;;;;8.15;1.88;;;;;;;;;;5054689;28;20486;-74
2022/11/22 12:00:25;;;;;;;7.25;2.13;;;;;;;;;;5052527;28;20111;-72
2022/11/22 12:02:55;;;;;;;10.05;2.22;;;;;;;;;;5031089;28;20563;-74
2022/11/22 12:05:22;;;;;;;8.77;1.80;;;;;;;;;;5031011;28;20204;-74
2022/11/22 12:07:48;;;;;;;6.00;1.90;;;;;;;;;;5053850;28;20049;-74
2022/11/22 12:10:32;;;;;;;10.48;2.53;;;;;;;;;;5053475;28;20087;-74
2022/11/22 12:13:07;;;;;;;10.45;2.00;;;;;;;;;;5028595;28;20204;-74
2022/11/22 12:16:03;;;;;;;5.93;2.50;;;;;;;;;;5055138;28;20099;-74
2022/11/22 12:18:29;;;;;;;12.68;2.72;;;;;;;;;;5031215;28;20049;-73
2022/11/22 12:21:03;;;;;;;4.85;1.63;;;;;;;;;;5054976;28;20032;-73
2022/11/22 12:23:35;;;;;;;9.43;3.53;;;;;;;;;;5054813;28;20041;-74
2022/11/22 12:26:01;;;;;;;7.90;2.28;;;;;;;;;;5030081;28;20527;-73
2022/11/22 12:28:28;;;;;;;5.32;1.98;;;;;;;;;;5055036;28;20048;-74
2022/11/22 12:31:00;;;;;;;8.77;3.05;;;;;;;;;;5029668;28;20041;-74
2022/11/22 12:33:26;;;;;;;;;;;;;;;;;;5054545;28;20091;-74
2022/11/22 12:35:54;;;;;;;4.63;1.80;;;;;;;;;;5054323;28;19924;-74
2022/11/22 12:38:24;;;;;;;7.43;2.55;;;;;;;;;;5030123;28;21254;-74
2022/11/22 12:40:52;;;;;;;8.10;2.78;;;;;;;;;;5056680;28;20045;-73
2022/11/22 12:43:39;;;;;;;9.18;1.70;;;;;;;;;;5055843;28;20041;-73
2022/11/22 12:46:09;;;;;;;10.32;2.53;;;;;;;;;;5054643;28;20098;-74
2022/11/22 12:48:46;;;;;;;10.07;1.90;;;;;;;;;;5056612;28;20098;-74
2022/11/22 12:51:32;;;;;;;13.52;2.63;;;;;;;;;;5054344;28;20045;-73
2022/11/22 12:54:00;;;;;;;6.88;3.17;;;;;;;;;;4992570;28;20228;-74
2022/11/22 12:56:31;;;;;;;11.77;2.17;;;;;;;;;;5050873;28;20436;-74
2022/11/22 12:59:12;;;;;;;2.75;1.70;;;;;;;;;;5052623;28;20131;-73
2022/11/22 13:01:41;;;;;;;1.80;1.00;;;;;;;;;;5052184;28;20041;-75
2022/11/22 13:04:10;;;;;;;9.98;2.22;;;;;;;;;;5035464;28;20045;-74
2022/11/22 13:06:45;;;;;;;6.13;1.92;;;;;;;;;;5054364;28;20064;-74
2022/11/22 13:09:13;;;;;;;10.75;2.20;;;;;;;;;;5035420;28;20045;-73
2022/11/22 13:11:44;;;;;;;7.32;1.58;;;;;;;;;;5036523;28;20068;-74
2022/11/22 13:14:27;;;;;;;8.80;2.90;;;;;;;;;;5053475;28;20080;-74
2022/11/22 13:16:53;;;;;;;9.88;2.20;;;;;;;;;;5053525;28;20037;-73
2022/11/22 13:19:21;;;;;;;6.32;1.98;;;;;;;;;;5034268;28;20055;-73
2022/11/22 13:22:09;;;;;;;18.55;2.25;;;;;;;;;;5053928;28;20052;-73
2022/11/22 13:24:39;;;;;;;11.15;2.10;;;;;;;;;;5055524;28;20067;-73
2022/11/22 13:27:17;;;;;;;5.25;1.08;;;;;;;;;;5051954;28;20587;-73
2022/11/22 13:29:44;;;;;;;6.20;1.83;;;;;;;;;;5054305;28;20056;-73
2022/11/22 13:32:13;;;;;;;7.18;1.67;;;;;;;;;;5052059;28;20032;-73
2022/11/22 13:34:58;;;;;;;6.35;2.20;;;;;;;;;;5051812;28;20047;-74
2022/11/22 13:37:25;;;;;;;4.13;2.03;;;;;;;;;;5028341;28;20447;-74
2022/11/22 13:39:51;;;;;;;8.13;2.67;;;;;;;;;;5050865;28;20829;-76
2022/11/22 13:42:19;;;;;;;9.23;3.58;;;;;;;;;;5052117;28;20052;-74
2022/11/22 13:44:57;;;;;;;8.18;3.42;;;;;;;;;;5051837;28;21326;-73
2022/11/22 13:47:23;;;;;;;6.05;2.17;;;;;;;;;;5050101;28;20077;-74
2022/11/22 13:49:49;;;;;;;5.97;1.65;;;;;;;;;;5058621;28;20150;-74
2022/11/22 13:52:16;;;;;;;6.10;2.20;;;;;;;;;;5054523;28;20037;-73
2022/11/22 13:54:42;;;;;;;3.00;1.00;;;;;;;;;;5041811;28;20049;-73
2022/11/22 13:57:26;;;;;;;7.78;3.30;;;;;;;;;;5057597;28;20046;-74
2022/11/22 14:00:11;;;;;;;7.88;1.98;;;;;;;;;;5059070;28;20048;-73
2022/11/22 14:02:43;;;;;;;7.63;2.22;;;;;;;;;;5054650;28;20139;-73
2022/11/22 14:05:20;;;;;;;7.97;2.35;;;;;;;;;;5039860;28;20075;-73
2022/11/22 14:07:50;;;;;;;5.13;1.80;;;;;;;;;;5059142;28;20041;-74
2022/11/22 14:10:27;;;;;;;9.88;1.58;;;;;;;;;;5057289;28;20049;-73
2022/11/22 14:12:59;;;;;;;6.35;1.73;;;;;;;;;;5058217;28;20041;-73
2022/11/22 14:15:31;;;;;;;9.50;2.38;;;;;;;;;;5029418;28;20132;-73
2022/11/22 14:17:57;;;;;;;7.78;1.48;;;;;;;;;;5039357;28;20045;-73
2022/11/22 14:20:38;;;;;;;6.20;2.08;;;;;;;;;;5058557;28;21949;-73
2022/11/22 14:23:04;;;;;;;7.13;1.50;;;;;;;;;;5037530;28;20518;-73
2022/11/22 14:25:49;;;;;;;7.47;2.00;;;;;;;;;;5059703;28;20044;-74
2022/11/22 14:28:15;;;;;;;7.70;2.08;;;;;;;;;;5038372;28;20069;-73
2022/11/22 14:30:52;;;;;;;6.78;1.83;;;;;;;;;;5057999;28;20040;-72
2022/11/22 14:33:19;;;;;;;10.20;4.18;;;;;;;;;;5032120;28;20059;-74
2022/11/22 14:36:04;;;;;;;6.38;2.65;;;;;;;;;;5057676;28;20041;-73
2022/11/22 14:38:31;;;;;;;9.18;1.65;;;;;;;;;;5038914;28;21619;-73
2022/11/22 14:41:16;;;;;;;6.35;1.83;;;;;;;;;;5059184;28;20045;-73
2022/11/22 14:43:43;;;;;;;9.90;2.63;;;;;;;;;;5057260;28;20044;-73
2022/11/22 14:46:16;;;;;;;12.30;3.15;;;;;;;;;;5057862;28;20045;-73
2022/11/22 14:49:05;;;;;;;6.10;1.35;;;;;;;;;;5057833;28;20463;-73
2022/11/22 14:51:32;;;;;;;6.65;1.73;;;;;;;;;;5033745;28;20045;-74
2022/11/22 14:53:59;;;;;;;9.02;2.92;;;;;;;;;;5041478;28;20059;-73
2022/11/22 14:56:28;;;;;;;6.40;1.70;;;;;;;;;;5032114;28;20069;-75
2022/11/22 14:59:00;;;;;;;12.07;2.92;;;;;;;;;;5058186;28;20531;-73
2022/11/22 15:01:26;;;;;;;8.38;2.08;;;;;;;;;;5054431;28;20974;-74
2022/11/22 15:04:05;;;;;;;2.58;1.45;;;;;;;;;;5052247;28;20482;-73